Time;durP1;ratioP1;P1;durP2;ratioP2;P2;SDS_P1;SDS_P2;PMS_P1;PMS_P2;Temp;Humidity;BMP_temperature;BMP_pressure;BME280_temperature;BME280_humidity;BME280_pressure;Samples;Min_cycle;Max_cycle;Signal;HPM_P1;HPM_P2
2023/05/15 00:01:32;;;;;;;19.25;12.30;;;;;;;12.85;100.00;100201.09;4989819;28;20038;-76
2023/05/15 00:04:01;;;;;;;18.73;12.45;;;;;;;12.76;100.00;100204.53;4988957;28;20043;-76
2023/05/15 00:06:29;;;;;;;19.17;13.07;;;;;;;12.79;100.00;100200.38;4989800;28;20061;-76
2023/05/15 00:08:57;;;;;;;22.33;13.00;;;;;;;12.76;100.00;100195.50;4989792;28;20042;-76
2023/05/15 00:11:26;;;;;;;19.48;13.05;;;;;;;12.76;100.00;100182.56;4988805;28;20057;-76
2023/05/15 00:13:54;;;;;;;21.35;13.82;;;;;;;12.73;100.00;100191.44;4988757;28;20050;-76
2023/05/15 00:16:23;;;;;;;18.95;12.50;;;;;;;12.72;100.00;100191.72;4990728;28;20051;-76
2023/05/15 00:18:51;;;;;;;20.75;13.80;;;;;;;12.71;100.00;100190.09;4992989;28;20489;-76
2023/05/15 00:21:19;;;;;;;22.15;14.23;;;;;;;12.71;100.00;100181.88;4992768;28;20062;-76
2023/05/15 00:23:47;;;;;;;22.23;13.68;;;;;;;12.69;100.00;100179.41;4991927;28;20054;-76
2023/05/15 00:26:15;;;;;;;20.40;12.98;;;;;;;12.63;100.00;100167.72;4993020;28;20043;-76
2023/05/15 00:28:43;;;;;;;21.73;12.70;;;;;;;12.61;100.00;100167.22;4991857;28;20476;-76
2023/05/15 00:31:11;;;;;;;18.80;13.40;;;;;;;12.55;100.00;100168.44;4993176;28;20489;-76
2023/05/15 00:33:40;;;;;;;19.88;13.52;;;;;;;12.57;100.00;100170.88;4992987;28;20069;-76
2023/05/15 00:36:09;;;;;;;18.65;12.25;;;;;;;12.53;100.00;100169.84;4991630;28;20062;-76
2023/05/15 00:38:37;;;;;;;20.92;13.02;;;;;;;12.49;100.00;100170.47;4992860;28;20120;-76
2023/05/15 00:41:06;;;;;;;23.55;13.75;;;;;;;12.52;100.00;100166.31;4993007;28;20051;-76
2023/05/15 00:43:38;;;;;;;21.63;14.13;;;;;;;12.53;100.00;100165.19;4991919;28;20042;-76
2023/05/15 00:46:08;;;;;;;21.73;13.18;;;;;;;12.51;100.00;100164.66;4992852;28;20046;-76
2023/05/15 00:48:36;;;;;;;20.73;14.43;;;;;;;12.52;100.00;100170.97;4992739;28;20510;-76
2023/05/15 00:51:04;;;;;;;21.52;13.30;;;;;;;12.52;100.00;100170.97;4992915;28;20058;-76
2023/05/15 00:53:32;;;;;;;18.38;12.23;;;;;;;12.41;100.00;100167.59;4992946;28;20508;-76
2023/05/15 00:56:04;;;;;;;20.17;12.93;;;;;;;12.44;100.00;100162.31;4992280;28;20054;-76
2023/05/15 00:58:34;;;;;;;22.48;13.93;;;;;;;12.44;100.00;100164.25;4989584;28;20050;-76
2023/05/15 01:01:02;;;;;;;19.90;12.30;;;;;;;12.40;100.00;100165.94;4982995;28;20046;-76
2023/05/15 01:03:32;;;;;;;22.70;12.73;;;;;;;12.42;100.00;100159.03;4991394;28;20042;-76
2023/05/15 01:06:00;;;;;;;20.17;12.93;;;;;;;12.40;100.00;100165.94;4992297;28;20043;-76
2023/05/15 01:08:45;;;;;;;19.73;12.23;;;;;;;12.36;100.00;100158.34;4991869;28;20054;-76
2023/05/15 01:11:13;;;;;;;;;;;;;;;12.38;100.00;100157.22;4991739;28;20046;-76
2023/05/15 01:13:42;;;;;;;21.45;13.45;;;;;;;12.28;100.00;100148.06;4991303;28;20304;-76
2023/05/15 01:16:10;;;;;;;22.90;14.27;;;;;;;12.27;100.00;100151.91;4991681;28;20519;-76
2023/05/15 01:18:38;;;;;;;22.30;13.15;;;;;;;12.36;100.00;100149.28;4976557;28;20408;-76
2023/05/15 01:21:35;;;;;;;21.80;13.85;;;;;;;12.35;100.00;100156.72;4992373;28;20039;-76
2023/05/15 01:24:32;;;;;;;21.27;12.93;;;;;;;12.40;100.00;100150.31;4991061;28;20058;-76
2023/05/15 01:27:05;;;;;;;19.45;12.88;;;;;;;12.34;100.00;100155.09;4991081;28;20043;-76
2023/05/15 01:29:55;;;;;;;19.58;12.35;;;;;;;12.37;100.00;100150.94;4992043;28;20058;-76
2023/05/15 01:32:26;;;;;;;21.75;12.77;;;;;;;12.35;100.00;100150.41;4990801;28;20054;-76
2023/05/15 01:35:23;;;;;;;18.17;13.77;;;;;;;12.40;100.00;100144.00;4990999;28;20053;-76
2023/05/15 01:38:22;;;;;;;19.58;12.13;;;;;;;12.39;100.00;100154.19;4977593;28;20066;-76
2023/05/15 01:40:58;;;;;;;19.73;12.40;;;;;;;12.41;100.00;100146.44;5045069;28;20067;-76
2023/05/15 01:43:30;;;;;;;18.98;12.55;;;;;;;12.40;100.00;100150.31;4982744;28;20053;-76
2023/05/15 01:45:58;;;;;;;18.95;11.70;;;;;;;12.43;100.00;100140.66;4990726;28;20050;-76
2023/05/15 01:48:28;;;;;;;19.55;11.52;;;;;;;12.40;100.00;100133.84;4991302;28;20058;-76
2023/05/15 01:51:00;;;;;;;17.25;11.95;;;;;;;12.44;100.00;100140.38;4991987;28;20073;-76
2023/05/15 01:53:32;;;;;;;17.60;11.77;;;;;;;12.41;100.00;100142.91;4991488;28;20054;-76
2023/05/15 01:56:02;;;;;;;18.63;12.18;;;;;;;12.33;100.00;100139.72;4990300;28;20073;-76
2023/05/15 01:58:31;;;;;;;20.60;12.60;;;;;;;12.34;100.00;100146.88;4991467;28;20066;-76
2023/05/15 02:01:00;;;;;;;18.10;12.70;;;;;;;12.34;100.00;100138.63;4990364;28;20038;-76
2023/05/15 02:03:34;;;;;;;19.95;13.18;;;;;;;12.40;100.00;100133.84;4991352;28;20053;-76
2023/05/15 02:06:04;;;;;;;19.25;13.15;;;;;;;12.36;100.00;100141.88;4990126;28;20046;-76
2023/05/15 02:08:34;;;;;;;20.35;13.43;;;;;;;12.34;100.00;100137.81;4990503;28;20064;-76
2023/05/15 02:11:04;;;;;;;20.63;13.77;;;;;;;12.32;100.00;100143.59;4991876;28;20054;-76
2023/05/15 02:13:33;;;;;;;21.77;14.43;;;;;;;12.25;100.00;100140.44;4989935;28;20535;-76
2023/05/15 02:16:01;;;;;;;23.38;13.85;;;;;;;12.22;100.00;100139.09;4991256;28;20046;-76
2023/05/15 02:18:29;;;;;;;21.00;13.90;;;;;;;12.24;100.00;100141.56;4990463;28;20047;-76
2023/05/15 02:21:01;;;;;;;22.45;13.73;;;;;;;12.25;100.00;100140.44;4991282;28;20042;-76
2023/05/15 02:23:29;;;;;;;22.08;14.30;;;;;;;12.20;100.00;100132.28;4991532;28;20058;-76
2023/05/15 02:26:20;;;;;;;22.83;14.30;;;;;;;12.21;100.00;100134.75;4991368;28;20412;-76
2023/05/15 02:29:35;;;;;;;23.55;14.98;;;;;;;12.17;100.00;100135.66;4991438;28;20046;-76
2023/05/15 02:32:29;;;;;;;;;;;;;;;12.24;100.00;100141.56;4991801;28;20047;-76
2023/05/15 02:35:02;;;;;;;24.95;15.15;;;;;;;12.17;100.00;100133.72;5020356;28;20376;-76
2023/05/15 02:37:34;;;;;;;26.45;15.95;;;;;;;12.27;100.00;100135.44;4991409;28;20061;-76
2023/05/15 02:40:06;;;;;;;22.92;15.52;;;;;;;12.18;100.00;100138.06;4991111;28;20046;-76
2023/05/15 02:42:35;;;;;;;21.73;13.82;;;;;;;12.13;100.00;100132.72;4990056;28;20054;-76
2023/05/15 02:45:04;;;;;;;22.75;14.55;;;;;;;12.07;100.00;100142.09;4991077;28;20049;-76
2023/05/15 02:47:33;;;;;;;21.80;13.90;;;;;;;12.09;100.00;100135.22;4989704;28;20054;-76
2023/05/15 02:50:03;;;;;;;22.65;14.40;;;;;;;12.19;100.00;100128.75;4990927;28;20057;-76
2023/05/15 02:52:36;;;;;;;22.08;14.25;;;;;;;12.16;100.00;100125.78;4989958;28;20069;-76
2023/05/15 02:55:05;;;;;;;21.38;13.60;;;;;;;12.18;100.00;100131.78;4990731;28;20423;-76
2023/05/15 02:57:33;;;;;;;18.17;12.30;;;;;;;12.03;100.00;100121.88;4989824;28;20046;-76
2023/05/15 03:00:04;;;;;;;20.38;12.88;;;;;;;12.03;100.00;100130.09;4990943;28;20481;-76
2023/05/15 03:02:32;;;;;;;19.70;12.70;;;;;;;11.91;100.00;100122.34;4990930;28;20469;-76
2023/05/15 03:05:00;;;;;;;19.70;13.05;;;;;;;11.93;100.00;100129.16;4989095;28;20049;-76
2023/05/15 03:07:27;;;;;;;19.05;12.75;;;;;;;11.95;100.00;100117.88;4989715;28;20049;-76
2023/05/15 03:09:55;;;;;;;18.63;12.90;;;;;;;11.96;100.00;100120.34;4990774;28;20065;-76
2023/05/15 03:12:23;;;;;;;18.85;13.65;;;;;;;11.89;100.00;100114.44;4989660;28;20481;-76
2023/05/15 03:14:51;;;;;;;20.20;13.10;;;;;;;11.68;100.00;100119.41;4974053;28;20058;-76
2023/05/15 03:17:20;;;;;;;20.30;12.57;;;;;;;11.76;100.00;100118.75;4989876;28;20046;-76
2023/05/15 03:19:48;;;;;;;22.83;14.02;;;;;;;11.77;100.00;100119.53;4990712;28;20054;-76
2023/05/15 03:22:16;;;;;;;22.90;13.40;;;;;;;11.85;100.00;100123.53;4990467;28;20038;-76
2023/05/15 03:24:44;;;;;;;21.80;12.85;;;;;;;11.83;100.00;100121.91;4990407;28;20045;-76
2023/05/15 03:27:12;;;;;;;19.65;12.80;;;;;;;11.91;100.00;100122.34;4990579;28;20483;-76
2023/05/15 03:29:42;;;;;;;20.98;12.95;;;;;;;11.98;100.00;100124.69;4990492;28;20042;-76
2023/05/15 03:32:10;;;;;;;22.02;12.85;;;;;;;11.99;100.00;100127.16;4990429;28;20049;-76
2023/05/15 03:34:38;;;;;;;21.80;13.05;;;;;;;11.95;100.00;100123.38;4990408;28;20053;-76
2023/05/15 03:37:07;;;;;;;22.52;13.55;;;;;;;11.98;100.00;100122.78;4990208;28;20054;-76
2023/05/15 03:39:35;;;;;;;21.55;13.63;;;;;;;12.02;100.00;100134.75;4989074;28;20031;-76
2023/05/15 03:42:04;;;;;;;22.25;12.60;;;;;;;12.07;100.00;100131.97;4989173;28;20401;-76
2023/05/15 03:44:32;;;;;;;20.88;12.85;;;;;;;12.09;100.00;100121.50;4989034;28;20124;-76
2023/05/15 03:47:00;;;;;;;22.02;14.05;;;;;;;12.02;100.00;100123.00;4990173;28;20400;-76
2023/05/15 03:49:28;;;;;;;19.95;12.25;;;;;;;12.12;100.00;100124.78;4988781;28;20058;-76
2023/05/15 03:51:56;;;;;;;18.50;12.13;;;;;;;11.95;100.00;100128.84;4989753;28;20046;-76
2023/05/15 03:54:24;;;;;;;19.48;12.10;;;;;;;12.05;100.00;100125.97;4988916;28;20107;-76
2023/05/15 03:56:52;;;;;;;17.70;11.40;;;;;;;12.05;100.00;100128.72;4989606;28;20057;-76
2023/05/15 03:59:20;;;;;;;17.38;10.32;;;;;;;12.00;100.00;100126.03;4988817;28;20057;-76
2023/05/15 04:01:48;;;;;;;14.25;9.68;;;;;;;12.11;100.00;100134.13;4990009;28;20053;-76
2023/05/15 04:04:30;;;;;;;14.43;9.32;;;;;;;12.14;100.00;100128.84;4988685;28;20050;-76
2023/05/15 04:06:59;;;;;;;13.55;9.50;;;;;;;12.06;100.00;100130.34;4989464;28;20067;-76
2023/05/15 04:09:27;;;;;;;13.77;8.10;;;;;;;11.99;100.00;100129.88;5086265;28;20404;-75
2023/05/15 04:11:55;;;;;;;12.02;7.78;;;;;;;12.22;100.00;100122.66;4989806;28;20050;-76
2023/05/15 04:14:22;;;;;;;10.82;6.70;;;;;;;12.30;100.00;100129.38;4988662;28;20057;-76
2023/05/15 04:16:50;;;;;;;8.15;5.63;;;;;;;12.31;100.00;100120.03;4989637;28;20042;-76
2023/05/15 04:19:18;;;;;;;6.72;4.70;;;;;;;12.27;100.00;100113.50;4988032;28;20057;-75
2023/05/15 04:21:46;;;;;;;5.00;3.60;;;;;;;12.23;100.00;100124.28;4989317;28;20054;-76
2023/05/15 04:24:14;;;;;;;3.10;2.80;;;;;;;11.96;100.00;100125.00;5009207;28;20500;-76
2023/05/15 04:26:42;;;;;;;3.55;3.25;;;;;;;11.90;100.00;100121.53;4991057;28;20055;-76
2023/05/15 04:29:10;;;;;;;3.65;2.65;;;;;;;11.95;100.00;100137.09;4989433;28;20055;-76
2023/05/15 04:31:39;;;;;;;4.53;3.03;;;;;;;11.95;100.00;100139.81;4989194;28;20034;-75
2023/05/15 04:34:06;;;;;;;5.53;3.15;;;;;;;12.56;100.00;100145.34;4986732;28;20051;-83
2023/05/15 04:36:35;;;;;;;3.28;2.97;;;;;;;13.06;100.00;100143.81;4989489;28;20058;-84
2023/05/15 04:39:03;;;;;;;6.72;3.63;;;;;;;13.28;100.00;100145.81;4988316;28;20409;-84
2023/05/15 04:41:32;;;;;;;5.78;4.30;;;;;;;13.12;100.00;100145.34;4989625;28;20039;-84
2023/05/15 04:44:00;;;;;;;7.00;4.35;;;;;;;13.17;100.00;100149.91;4993045;28;20046;-83
2023/05/15 04:46:28;;;;;;;7.28;5.40;;;;;;;13.24;100.00;100154.97;4989234;28;20057;-82
2023/05/15 04:48:56;;;;;;;8.05;5.53;;;;;;;13.06;100.00;100154.81;4987514;28;20062;-83
2023/05/15 04:51:24;;;;;;;7.57;5.25;;;;;;;13.10;100.00;100152.25;4987687;28;20050;-83
2023/05/15 04:53:52;;;;;;;5.95;5.22;;;;;;;13.08;100.00;100149.81;5020563;28;20042;-82
2023/05/15 04:56:20;;;;;;;6.25;4.95;;;;;;;12.88;100.00;100143.63;4989227;28;20046;-83
2023/05/15 04:58:48;;;;;;;7.03;5.10;;;;;;;13.06;100.00;100143.00;5018916;28;20043;-82
2023/05/15 05:01:16;;;;;;;8.35;5.32;;;;;;;13.15;100.00;100143.91;4970515;28;20046;-81
2023/05/15 05:03:44;;;;;;;6.32;4.88;;;;;;;13.10;100.00;100136.56;4981780;28;20043;-81
2023/05/15 05:06:12;;;;;;;5.43;4.53;;;;;;;13.28;100.00;100147.72;4988763;28;20058;-80
2023/05/15 05:08:40;;;;;;;8.95;4.22;;;;;;;13.30;100.00;100143.56;4983511;28;20050;-81
2023/05/15 05:11:08;;;;;;;5.95;4.30;;;;;;;13.22;100.00;100146.22;4992015;28;20485;-81
2023/05/15 05:13:35;;;;;;;5.97;4.03;;;;;;;13.12;100.00;100150.00;4992558;28;20051;-80
2023/05/15 05:16:04;;;;;;;6.82;4.63;;;;;;;13.19;100.00;100157.84;4985679;28;20035;-80
2023/05/15 05:18:32;;;;;;;7.25;5.22;;;;;;;13.20;100.00;100152.00;4972201;28;20409;-81
2023/05/15 05:21:02;;;;;;;5.70;4.25;;;;;;;13.31;100.00;100155.38;4984932;28;20061;-80
2023/05/15 05:23:30;;;;;;;7.07;5.25;;;;;;;13.21;100.00;100152.84;4991675;28;20042;-80
2023/05/15 05:25:58;;;;;;;5.85;4.85;;;;;;;13.31;100.00;100166.38;4991796;28;20038;-80
2023/05/15 05:28:27;;;;;;;6.32;4.60;;;;;;;13.35;100.00;100163.81;4990992;28;20049;-80
2023/05/15 05:30:55;;;;;;;6.75;5.43;;;;;;;12.81;100.00;100159.69;4991699;28;20042;-80
2023/05/15 05:33:26;;;;;;;6.78;5.03;;;;;;;12.77;100.00;100155.94;4991751;28;20050;-80
2023/05/15 05:35:55;;;;;;;7.35;5.28;;;;;;;12.97;100.00;100156.63;4974296;28;20055;-80
2023/05/15 05:38:23;;;;;;;7.68;6.00;;;;;;;13.21;100.00;100153.66;4991190;28;20047;-80
2023/05/15 05:40:51;;;;;;;7.25;5.80;;;;;;;13.38;100.00;100161.25;4987187;28;20489;-80
2023/05/15 05:43:19;;;;;;;8.40;6.43;;;;;;;13.16;100.00;100160.06;4975007;28;20436;-80
2023/05/15 05:45:47;;;;;;;8.15;6.55;;;;;;;13.43;100.00;100155.63;4992072;28;20053;-80
2023/05/15 05:48:15;;;;;;;8.77;6.18;;;;;;;13.65;100.00;100156.81;4991917;28;20045;-81
2023/05/15 05:50:43;;;;;;;9.23;6.68;;;;;;;13.82;100.00;100155.31;4991867;28;20042;-80
2023/05/15 05:53:11;;;;;;;8.57;6.43;;;;;;;14.01;100.00;100146.06;4992002;28;20042;-80
2023/05/15 05:55:39;;;;;;;9.05;6.90;;;;;;;14.09;100.00;100156.31;4991787;28;20477;-81
2023/05/15 05:58:07;;;;;;;7.93;5.68;;;;;;;14.00;100.00;100158.19;5022912;28;20046;-81
2023/05/15 06:00:51;;;;;;;8.65;6.38;;;;;;;14.27;100.00;100150.91;4991417;28;20043;-80
2023/05/15 06:03:20;;;;;;;8.15;6.03;;;;;;;14.27;100.00;100154.47;4991552;28;20058;-80
2023/05/15 06:05:48;;;;;;;7.68;5.63;;;;;;;14.40;100.00;100149.19;4991558;28;20042;-81
2023/05/15 06:08:16;;;;;;;7.47;5.50;;;;;;;14.57;100.00;100151.22;4991481;28;20050;-81
2023/05/15 06:10:44;;;;;;;7.93;4.90;;;;;;;14.67;100.00;100150.94;4991477;28;20051;-80
2023/05/15 06:13:13;;;;;;;7.15;5.20;;;;;;;14.63;100.00;100152.69;4990836;28;20050;-80
2023/05/15 06:15:42;;;;;;;10.93;5.63;;;;;;;14.72;100.00;100138.97;5022876;28;20050;-80
2023/05/15 06:18:10;;;;;;;8.25;5.43;;;;;;;14.38;100.00;100141.25;5022569;28;20058;-80
2023/05/15 06:20:38;;;;;;;10.18;5.40;;;;;;;14.50;100.00;100140.66;4991224;28;20046;-81
2023/05/15 06:23:06;;;;;;;8.65;5.60;;;;;;;14.50;100.00;100146.16;5022384;28;20042;-80
2023/05/15 06:25:34;;;;;;;6.50;5.43;;;;;;;14.73;100.00;100149.66;5022266;28;20058;-80
2023/05/15 06:28:02;;;;;;;7.88;5.30;;;;;;;14.86;100.00;100145.19;4991212;28;20050;-80
2023/05/15 06:30:30;;;;;;;9.15;6.43;;;;;;;14.84;100.00;100138.38;4991073;28;20046;-81
2023/05/15 06:32:58;;;;;;;6.15;4.70;;;;;;;14.97;100.00;100147.66;4991210;28;20057;-81
2023/05/15 06:35:26;;;;;;;6.65;4.57;;;;;;;15.10;100.00;100148.66;4990951;28;20046;-80
2023/05/15 06:37:54;;;;;;;4.88;4.03;;;;;;;15.11;100.00;100145.56;4989885;28;20109;-80
2023/05/15 06:40:25;;;;;;;4.70;3.30;;;;;;;15.07;100.00;100152.88;4990988;28;20050;-81
2023/05/15 06:42:53;;;;;;;4.88;3.92;;;;;;;15.11;99.27;100133.75;4990927;28;20050;-80
2023/05/15 06:45:21;;;;;;;3.63;3.03;;;;;;;15.11;99.99;100139.25;4990978;28;20050;-80
2023/05/15 06:47:49;;;;;;;4.35;3.50;;;;;;;15.11;98.50;100140.06;4990708;28;20059;-80
2023/05/15 06:50:17;;;;;;;4.07;3.38;;;;;;;15.35;99.01;100138.78;4990845;28;20485;-80
2023/05/15 06:52:45;;;;;;;4.50;3.88;;;;;;;15.57;98.07;100137.84;4990758;28;20045;-80
2023/05/15 06:55:13;;;;;;;5.75;4.28;;;;;;;15.47;97.31;100132.63;4990685;28;20404;-80
2023/05/15 06:57:41;;;;;;;4.47;3.60;;;;;;;15.58;96.69;100135.88;4990799;28;20058;-80
2023/05/15 07:00:10;;;;;;;3.47;3.17;;;;;;;15.59;96.93;100141.06;4990755;28;20039;-80
2023/05/15 07:02:38;;;;;;;4.55;3.70;;;;;;;15.51;100.00;100136.38;4990656;28;20042;-80
2023/05/15 07:05:07;;;;;;;5.78;4.22;;;;;;;15.68;98.78;100143.81;4990834;28;20058;-80
2023/05/15 07:07:35;;;;;;;5.60;4.10;;;;;;;15.66;99.84;100154.38;4990649;28;20050;-80
2023/05/15 07:10:04;;;;;;;4.97;3.58;;;;;;;15.69;97.33;100147.41;4990474;28;20054;-80
2023/05/15 07:12:33;;;;;;;5.82;4.50;;;;;;;15.80;96.71;100142.34;4990539;28;20058;-80
2023/05/15 07:15:00;;;;;;;5.75;4.88;;;;;;;15.68;97.35;100148.53;4990250;28;20050;-80
2023/05/15 07:17:31;;;;;;;9.30;5.40;;;;;;;15.73;97.83;100142.84;4990377;28;20401;-80
2023/05/15 07:19:59;;;;;;;7.35;5.43;;;;;;;15.89;96.57;100136.84;4990267;28;20508;-80
2023/05/15 07:22:27;;;;;;;7.30;5.10;;;;;;;15.89;96.99;100131.31;4990315;28;20046;-80
2023/05/15 07:24:55;;;;;;;6.28;4.85;;;;;;;16.06;95.99;100131.31;4989233;28;20054;-80
2023/05/15 07:27:23;;;;;;;9.93;6.15;;;;;;;16.14;96.86;100129.69;4990255;28;20047;-81
2023/05/15 07:29:52;;;;;;;7.78;6.18;;;;;;;16.07;96.42;100132.09;4990296;28;20045;-80
2023/05/15 07:32:20;;;;;;;9.93;6.35;;;;;;;16.34;94.59;100135.63;4990277;28;20480;-80
2023/05/15 07:34:48;;;;;;;11.13;7.03;;;;;;;16.38;97.50;100136.59;4990045;28;20053;-80
2023/05/15 07:37:16;;;;;;;12.13;7.63;;;;;;;16.15;97.64;100125.78;4990336;28;20049;-80
2023/05/15 07:39:45;;;;;;;10.73;7.60;;;;;;;16.34;99.26;100127.34;4990697;28;20053;-80
2023/05/15 07:42:13;;;;;;;11.38;7.90;;;;;;;16.42;97.81;100136.72;4990467;28;20065;-80
2023/05/15 07:44:41;;;;;;;12.55;8.27;;;;;;;16.52;96.88;100139.94;4989958;28;20046;-80
2023/05/15 07:47:12;;;;;;;13.88;8.05;;;;;;;16.58;96.41;100140.56;4988934;28;20042;-81
2023/05/15 07:49:40;;;;;;;13.07;8.18;;;;;;;16.86;94.55;100144.81;4989773;28;20053;-80
2023/05/15 07:52:07;;;;;;;10.90;7.20;;;;;;;16.58;94.28;100139.75;4989974;28;20038;-80
2023/05/15 07:54:35;;;;;;;11.35;7.38;;;;;;;16.79;95.27;100137.88;4989834;28;20484;-80
2023/05/15 07:57:04;;;;;;;10.77;7.47;;;;;;;16.68;96.29;100130.28;5020885;28;20050;-81
2023/05/15 07:59:31;;;;;;;10.00;7.65;;;;;;;16.57;97.37;100130.63;4989801;28;20065;-80
2023/05/15 08:01:59;;;;;;;9.80;6.78;;;;;;;16.63;96.86;100136.81;4988559;28;20056;-81
2023/05/15 08:04:28;;;;;;;8.25;6.47;;;;;;;16.70;94.25;100139.03;4989716;28;20046;-80
2023/05/15 08:06:56;;;;;;;6.18;5.07;;;;;;;16.58;93.47;100137.81;4988611;28;20110;-81
2023/05/15 08:09:24;;;;;;;9.15;5.72;;;;;;;16.85;91.90;100130.19;4989800;28;20050;-81
2023/05/15 08:11:55;;;;;;;6.47;5.20;;;;;;;17.00;91.93;100130.72;4989727;28;20042;-81
2023/05/15 08:14:23;;;;;;;7.15;5.03;;;;;;;17.15;90.25;100134.91;4989653;28;20053;-81
2023/05/15 08:16:51;;;;;;;6.43;4.75;;;;;;;17.10;88.72;100135.91;4989720;28;20393;-81
2023/05/15 08:19:20;;;;;;;7.18;5.47;;;;;;;17.21;90.71;100125.28;4989596;28;20042;-81
2023/05/15 08:21:48;;;;;;;5.18;4.38;;;;;;;17.05;88.25;100125.03;4989656;28;20046;-81
2023/05/15 08:24:16;;;;;;;6.78;5.07;;;;;;;17.37;89.13;100119.94;4988272;28;20047;-81
2023/05/15 08:26:44;;;;;;;6.57;4.78;;;;;;;17.36;88.23;100120.28;4989532;28;20054;-81
2023/05/15 08:29:12;;;;;;;6.78;4.47;;;;;;;17.30;88.36;100117.72;5021022;28;20508;-81
2023/05/15 08:31:40;;;;;;;6.80;4.22;;;;;;;17.37;85.62;100108.88;4989485;28;20042;-81
2023/05/15 08:34:08;;;;;;;7.10;4.70;;;;;;;17.19;86.82;100106.25;4989522;28;20055;-81
2023/05/15 08:36:37;;;;;;;5.47;4.07;;;;;;;17.24;86.35;100101.66;4990273;28;20058;-81
2023/05/15 08:39:08;;;;;;;6.22;4.63;;;;;;;17.41;85.67;100098.75;4992892;28;20091;-81
2023/05/15 08:41:45;;;;;;;8.18;4.60;;;;;;;17.35;83.62;100102.88;4992814;28;20046;-81
2023/05/15 08:44:13;;;;;;;5.65;4.45;;;;;;;17.63;85.93;100101.50;4992846;28;20055;-81
2023/05/15 08:46:42;;;;;;;5.22;4.07;;;;;;;17.73;82.76;100110.19;4992895;28;20051;-81
2023/05/15 08:49:32;;;;;;;6.07;4.10;;;;;;;17.81;81.38;100113.22;4992574;28;20047;-81
2023/05/15 08:52:00;;;;;;;5.82;4.18;;;;;;;17.83;83.46;100119.22;4992721;28;20401;-81
2023/05/15 08:54:28;;;;;;;7.45;4.80;;;;;;;17.96;80.96;100117.28;4991326;28;20062;-81
2023/05/15 08:56:57;;;;;;;8.38;4.85;;;;;;;17.91;83.27;100123.88;4992528;28;20047;-80
2023/05/15 08:59:25;;;;;;;6.85;4.72;;;;;;;17.94;83.85;100120.41;4992431;28;20497;-81
2023/05/15 09:01:53;;;;;;;7.93;5.03;;;;;;;17.94;83.71;100137.00;4992571;28;20039;-81
2023/05/15 09:04:21;;;;;;;6.95;4.88;;;;;;;18.04;84.14;100137.75;4992501;28;20497;-81
2023/05/15 09:06:50;;;;;;;7.10;4.72;;;;;;;18.24;83.97;100141.63;4991249;28;20046;-81
2023/05/15 09:09:19;;;;;;;6.15;4.43;;;;;;;18.32;83.25;100153.78;4992227;28;20489;-80
2023/05/15 09:11:47;;;;;;;7.10;4.70;;;;;;;18.49;83.02;100153.56;4992366;28;20057;-81
2023/05/15 09:14:15;;;;;;;10.05;5.47;;;;;;;18.40;81.81;100147.31;4992111;28;20057;-81
2023/05/15 09:16:45;;;;;;;8.65;4.80;;;;;;;18.16;80.02;100145.28;4992301;28;20042;-81
2023/05/15 09:19:14;;;;;;;6.30;4.22;;;;;;;18.40;80.42;100147.31;4992518;28;20481;-81
2023/05/15 09:21:42;;;;;;;6.15;4.35;;;;;;;18.24;80.03;100159.03;4992234;28;20041;-81
2023/05/15 09:24:24;;;;;;;7.93;4.57;;;;;;;18.15;80.16;100161.13;4990693;28;20050;-82
2023/05/15 09:27:06;;;;;;;5.82;3.85;;;;;;;18.28;78.12;100156.38;4992198;28;20054;-82
2023/05/15 09:29:36;;;;;;;6.82;4.35;;;;;;;18.28;78.69;100153.63;4992045;28;20053;-82
2023/05/15 09:32:09;;;;;;;6.25;3.75;;;;;;;18.30;79.71;100161.59;4992085;28;20053;-82
2023/05/15 09:34:39;;;;;;;6.05;4.03;;;;;;;18.35;81.47;100158.59;4991880;28;20481;-81
2023/05/15 09:37:10;;;;;;;5.28;3.80;;;;;;;18.50;78.23;100155.19;4992366;28;20078;-81
2023/05/15 09:39:42;;;;;;;6.72;4.50;;;;;;;18.67;78.05;100153.31;4991922;28;20050;-81
2023/05/15 09:42:13;;;;;;;5.30;4.03;;;;;;;18.80;78.53;100154.16;4991973;28;20047;-81
2023/05/15 09:44:42;;;;;;;4.43;3.92;;;;;;;18.90;78.86;100153.69;4990618;28;20053;-81
2023/05/15 09:47:16;;;;;;;5.47;3.83;;;;;;;18.99;77.36;100167.44;4991865;28;20057;-81
2023/05/15 09:49:45;;;;;;;5.20;4.43;;;;;;;18.84;76.38;100168.13;4990756;28;20054;-81
2023/05/15 09:52:15;;;;;;;4.88;3.65;;;;;;;18.84;76.96;100162.56;4991787;28;20062;-81
2023/05/15 09:54:45;;;;;;;5.18;4.40;;;;;;;18.89;78.58;100162.34;4991522;28;20377;-81
2023/05/15 09:57:21;;;;;;;4.90;4.20;;;;;;;18.84;78.35;100157.03;4991703;28;20516;-81
2023/05/15 09:59:49;;;;;;;4.60;4.20;;;;;;;18.94;78.67;100157.38;4991712;28;20046;-81
2023/05/15 10:02:31;;;;;;;6.05;3.70;;;;;;;19.21;76.19;100151.47;5022708;28;20050;-81
2023/05/15 10:04:59;;;;;;;6.47;4.50;;;;;;;19.14;74.69;100157.63;4991480;28;20046;-81
2023/05/15 10:07:30;;;;;;;7.43;5.05;;;;;;;19.27;75.97;100163.97;4991589;28;20046;-81
2023/05/15 10:09:59;;;;;;;5.53;4.25;;;;;;;19.25;75.25;100162.69;4991769;28;20042;-80
2023/05/15 10:12:30;;;;;;;5.25;4.65;;;;;;;19.37;74.21;100167.41;4991528;28;20059;-82
2023/05/15 10:15:00;;;;;;;5.47;3.97;;;;;;;19.22;73.26;100164.19;4991278;28;20073;-81
2023/05/15 10:17:31;;;;;;;6.05;3.60;;;;;;;19.42;74.51;100158.84;4991351;28;20054;-81
2023/05/15 10:20:01;;;;;;;5.95;4.07;;;;;;;19.25;71.61;100166.25;4991361;28;20053;-82
2023/05/15 10:22:34;;;;;;;6.57;4.15;;;;;;;19.60;70.09;100154.63;4976618;28;20050;-82
2023/05/15 10:25:07;;;;;;;4.32;3.92;;;;;;;19.56;68.94;100137.03;4985009;28;20042;-82
2023/05/15 10:27:39;;;;;;;4.85;4.07;;;;;;;19.85;72.56;100143.41;4989685;28;20050;-82
2023/05/15 10:30:11;;;;;;;5.50;4.47;;;;;;;19.86;72.16;100141.44;4988338;28;20057;-82
2023/05/15 10:32:40;;;;;;;5.47;3.97;;;;;;;19.91;70.84;100141.19;4991000;28;20038;-83
2023/05/15 10:35:09;;;;;;;4.95;4.03;;;;;;;20.13;72.58;100150.13;4990352;28;20054;-82
2023/05/15 10:37:40;;;;;;;8.77;3.67;;;;;;;20.21;71.20;100151.13;4990401;28;20489;-81
2023/05/15 10:40:09;;;;;;;4.30;3.30;;;;;;;20.19;69.45;100150.69;4990777;28;20042;-81
2023/05/15 10:42:42;;;;;;;3.83;3.10;;;;;;;20.00;67.26;100154.97;4980782;28;20042;-80
2023/05/15 10:45:10;;;;;;;4.43;2.92;;;;;;;20.10;68.38;100151.63;4989747;28;20061;-80
2023/05/15 10:47:41;;;;;;;5.25;3.28;;;;;;;20.09;70.04;100152.00;4980183;28;20050;-80
2023/05/15 10:50:14;;;;;;;3.22;2.80;;;;;;;20.16;65.77;100157.75;4970200;28;20035;-80
2023/05/15 10:52:42;;;;;;;4.68;3.50;;;;;;;20.06;65.82;100141.59;4969237;28;20062;-80
2023/05/15 10:55:16;;;;;;;3.83;3.10;;;;;;;20.09;64.88;100152.81;5000766;28;20039;-81
2023/05/15 10:57:49;;;;;;;5.90;4.30;;;;;;;20.12;70.85;100141.00;5003025;28;20043;-82
2023/05/15 11:00:27;;;;;;;5.75;4.43;;;;;;;20.32;69.50;100143.88;4976700;28;20057;-81
2023/05/15 11:02:57;;;;;;;5.75;4.63;;;;;;;20.21;73.10;100143.59;5007596;28;20446;-80
2023/05/15 11:05:25;;;;;;;8.23;5.13;;;;;;;20.45;70.88;100114.03;4972593;28;20540;-80
2023/05/15 11:08:20;;;;;;;7.35;4.43;;;;;;;20.16;69.94;100098.59;4975907;28;20371;-80
2023/05/15 11:10:48;;;;;;;7.82;5.13;;;;;;;20.49;70.37;100097.44;4970852;28;20051;-80
2023/05/15 11:13:16;;;;;;;6.25;5.03;;;;;;;20.77;74.86;100085.41;5001453;28;20049;-80
2023/05/15 11:15:46;;;;;;;7.07;4.70;;;;;;;21.07;71.11;100098.81;4970575;28;20039;-81
2023/05/15 11:18:14;;;;;;;5.65;4.35;;;;;;;21.12;70.62;100081.81;4970705;28;20047;-80
2023/05/15 11:20:48;;;;;;;4.80;4.07;;;;;;;20.96;67.19;100084.66;4970679;28;20058;-80
2023/05/15 11:23:21;;;;;;;5.25;3.95;;;;;;;21.12;68.36;100084.59;4970414;28;20050;-81
2023/05/15 11:25:54;;;;;;;3.22;2.90;;;;;;;21.02;64.92;100087.97;5001738;28;20050;-81
2023/05/15 11:28:24;;;;;;;4.10;3.25;;;;;;;21.17;64.21;100086.31;4974694;28;20050;-81